createdAt,value
2023-01-19T00:01:06.663Z,12.53
2023-01-19T00:03:55.137Z,13.73
2023-01-19T00:06:43.634Z,14.63
2023-01-19T00:09:33.898Z,12.10
2023-01-19T00:12:22.409Z,12.87
2023-01-19T00:15:12.014Z,11.47
2023-01-19T00:18:00.408Z,13.73
2023-01-19T00:20:49.620Z,11.63
2023-01-19T00:23:38.097Z,13.37
2023-01-19T00:26:28.080Z,14.80
2023-01-19T00:29:16.565Z,11.60
2023-01-19T00:32:06.573Z,16.10
2023-01-19T00:34:55.095Z,15.40
2023-01-19T00:37:45.964Z,18.77
2023-01-19T00:40:34.442Z,14.57
2023-01-19T00:43:24.386Z,14.00
2023-01-19T00:46:13.271Z,13.73
2023-01-19T00:49:01.753Z,14.90
2023-01-19T00:51:50.235Z,14.80
2023-01-19T00:54:38.777Z,17.03
2023-01-19T00:57:29.485Z,14.47
2023-01-19T01:00:20.898Z,15.37
2023-01-19T01:03:09.402Z,11.93
2023-01-19T01:05:57.900Z,14.50
2023-01-19T01:08:46.354Z,15.63
2023-01-19T01:11:34.870Z,15.03
2023-01-19T01:14:23.691Z,13.87
2023-01-19T01:17:14.333Z,11.40
2023-01-19T01:20:04.858Z,13.57
2023-01-19T01:22:57.633Z,12.53
2023-01-19T01:25:46.629Z,13.60
2023-01-19T01:28:35.142Z,11.77
2023-01-19T01:31:23.626Z,10.30
2023-01-19T01:34:13.457Z,13.33
2023-01-19T01:37:01.915Z,10.80
2023-01-19T01:39:50.343Z,11.63
2023-01-19T01:42:40.340Z,11.43
2023-01-19T01:45:32.819Z,14.23
2023-01-19T01:48:24.557Z,13.40
2023-01-19T01:51:25.365Z,11.70
2023-01-19T01:54:17.790Z,12.90
2023-01-19T01:57:12.192Z,10.00
2023-01-19T02:00:00.686Z,12.23
2023-01-19T02:02:51.496Z,10.30
2023-01-19T02:05:39.983Z,10.60
2023-01-19T02:08:50.979Z,9.33
2023-01-19T02:11:57.504Z,10.07
2023-01-19T02:14:45.962Z,11.43
2023-01-19T02:17:34.705Z,10.77
2023-01-19T02:20:25.396Z,9.70
2023-01-19T02:23:18.302Z,11.50
2023-01-19T02:26:10.116Z,13.47
2023-01-19T02:29:00.466Z,9.77
2023-01-19T02:31:49.055Z,13.13
2023-01-19T02:34:37.590Z,9.60
2023-01-19T02:37:27.239Z,9.17
2023-01-19T02:40:16.775Z,9.50
2023-01-19T02:43:08.759Z,9.17
2023-01-19T02:45:57.280Z,10.37
2023-01-19T02:48:45.739Z,10.00
2023-01-19T02:51:34.505Z,10.73
2023-01-19T02:54:47.323Z,10.47
2023-01-19T02:57:44.050Z,16.70
2023-01-19T03:00:38.421Z,12.97
2023-01-19T03:03:30.763Z,11.90
2023-01-19T03:06:26.706Z,12.50
2023-01-19T03:09:22.553Z,10.57
2023-01-19T03:12:16.097Z,13.77
2023-01-19T03:15:13.247Z,11.67
2023-01-19T03:18:03.525Z,12.13
2023-01-19T03:20:54.185Z,14.60
2023-01-19T03:23:43.519Z,15.40
2023-01-19T03:26:33.628Z,10.43
2023-01-19T03:29:23.655Z,12.70
2023-01-19T03:32:13.882Z,11.50
2023-01-19T03:35:08.481Z,11.97
2023-01-19T03:37:58.175Z,11.83
2023-01-19T03:40:47.422Z,10.73
2023-01-19T03:43:36.980Z,14.63
2023-01-19T03:46:26.219Z,10.27
2023-01-19T03:49:15.072Z,10.30
2023-01-19T03:52:05.524Z,14.27
2023-01-19T03:54:53.991Z,12.90
2023-01-19T03:57:42.495Z,17.83
2023-01-19T04:00:31.359Z,13.60
2023-01-19T04:03:19.780Z,11.27
2023-01-19T04:06:09.333Z,12.47
2023-01-19T04:08:59.131Z,10.70
2023-01-19T04:11:47.652Z,12.23
2023-01-19T04:14:36.117Z,15.00
2023-01-19T04:17:24.566Z,12.20
2023-01-19T04:20:13.399Z,11.53
2023-01-19T04:23:02.937Z,12.00
2023-01-19T04:25:58.330Z,14.20
2023-01-19T04:28:46.964Z,11.70
2023-01-19T04:31:36.887Z,13.77
2023-01-19T04:34:25.487Z,15.70
2023-01-19T04:37:14.168Z,16.50
2023-01-19T04:40:02.779Z,16.33
2023-01-19T04:42:52.663Z,11.33
2023-01-19T04:45:41.172Z,12.27
2023-01-19T04:48:29.628Z,11.53
2023-01-19T04:51:18.103Z,13.30
2023-01-19T04:54:06.897Z,13.10
2023-01-19T04:56:55.419Z,11.70
2023-01-19T04:59:45.359Z,13.23
2023-01-19T05:02:33.831Z,11.17
2023-01-19T05:05:22.522Z,15.27
2023-01-19T05:08:10.948Z,12.70
2023-01-19T05:10:59.918Z,11.83
2023-01-19T05:13:50.838Z,12.70
2023-01-19T05:16:40.790Z,16.80
2023-01-19T05:19:29.238Z,13.77
2023-01-19T05:22:18.057Z,14.47
2023-01-19T05:25:08.718Z,15.67
2023-01-19T05:27:57.269Z,14.60
2023-01-19T05:30:45.730Z,15.50
2023-01-19T05:33:35.647Z,15.73
2023-01-19T05:36:24.079Z,20.37
2023-01-19T05:39:12.562Z,13.80
2023-01-19T05:42:01.069Z,14.60
2023-01-19T05:44:49.539Z,13.93
2023-01-19T05:47:38.353Z,13.13
2023-01-19T05:50:28.354Z,17.17
2023-01-19T05:53:17.145Z,18.07
2023-01-19T05:56:08.582Z,16.37
2023-01-19T05:58:57.055Z,17.23
2023-01-19T06:01:45.559Z,14.27
2023-01-19T06:04:34.120Z,13.50
2023-01-19T06:07:24.582Z,13.90
2023-01-19T06:10:13.931Z,16.03
2023-01-19T06:13:02.685Z,16.30
2023-01-19T06:15:57.832Z,13.50
2023-01-19T06:18:46.395Z,16.37
2023-01-19T06:21:35.291Z,14.10
2023-01-19T06:24:25.230Z,17.23
2023-01-19T06:27:13.811Z,16.63
2023-01-19T06:30:02.230Z,14.30
2023-01-19T06:32:50.754Z,20.43
2023-01-19T06:35:39.229Z,14.27
2023-01-19T06:38:28.929Z,14.27
2023-01-19T06:41:18.780Z,18.93
2023-01-19T06:44:08.063Z,15.27
2023-01-19T06:47:14.595Z,12.70
2023-01-19T06:50:04.752Z,13.53
2023-01-19T06:52:53.416Z,16.83
2023-01-19T06:55:41.907Z,15.07
2023-01-19T06:58:34.750Z,16.30
2023-01-19T07:01:23.335Z,16.43
2023-01-19T07:04:14.210Z,13.43
2023-01-19T07:07:02.682Z,16.80
2023-01-19T07:09:53.801Z,17.03
2023-01-19T07:12:44.022Z,11.77
2023-01-19T07:15:33.944Z,11.63
2023-01-19T07:18:22.412Z,15.30
2023-01-19T07:21:11.080Z,15.10
2023-01-19T07:23:59.599Z,11.87
2023-01-19T07:26:48.847Z,14.70
2023-01-19T07:29:37.292Z,11.53
2023-01-19T07:32:27.382Z,12.00
2023-01-19T07:35:15.903Z,15.80
2023-01-19T07:38:04.544Z,14.27
2023-01-19T07:40:53.008Z,15.17
2023-01-19T07:43:41.667Z,11.70
2023-01-19T07:46:30.134Z,11.07
2023-01-19T07:49:20.632Z,11.00
2023-01-19T07:52:09.445Z,12.10
2023-01-19T07:54:59.157Z,10.80
2023-01-19T07:57:50.960Z,10.60
2023-01-19T08:00:39.629Z,12.83
2023-01-19T08:03:28.145Z,10.97
2023-01-19T08:06:20.790Z,17.07
2023-01-19T08:09:10.002Z,12.00
2023-01-19T08:11:58.500Z,11.70
2023-01-19T08:14:47.063Z,11.33
2023-01-19T08:17:35.579Z,13.10
2023-01-19T08:20:25.351Z,11.37
2023-01-19T08:23:15.228Z,11.50
2023-01-19T08:26:03.910Z,11.30
2023-01-19T08:28:52.374Z,12.37
2023-01-19T08:31:41.871Z,13.67
2023-01-19T08:34:31.967Z,11.90
2023-01-19T08:37:20.459Z,13.53
2023-01-19T08:40:12.122Z,13.30
2023-01-19T08:43:03.558Z,12.20
2023-01-19T08:45:53.407Z,13.37
2023-01-19T08:48:41.903Z,13.20
2023-01-19T08:51:30.360Z,10.77
2023-01-19T08:54:20.188Z,12.23
2023-01-19T08:57:10.216Z,12.07
2023-01-19T08:59:58.719Z,11.73
2023-01-19T09:02:47.357Z,12.90
2023-01-19T09:05:38.692Z,11.97
2023-01-19T09:08:27.253Z,13.97
2023-01-19T09:11:17.179Z,13.93
2023-01-19T09:14:07.008Z,11.13
2023-01-19T09:16:56.159Z,12.63
2023-01-19T09:19:44.784Z,10.80
2023-01-19T09:22:33.384Z,12.57
2023-01-19T09:25:21.886Z,12.00
2023-01-19T09:28:11.864Z,11.40
2023-01-19T09:31:05.933Z,11.50
2023-01-19T09:33:54.654Z,9.10
2023-01-19T09:36:43.143Z,10.00
2023-01-19T09:39:31.746Z,12.80
2023-01-19T09:42:25.303Z,12.50
2023-01-19T09:45:17.628Z,10.47
2023-01-19T09:48:19.621Z,13.30
2023-01-19T09:51:11.658Z,9.23
2023-01-19T09:54:13.086Z,10.20
2023-01-19T09:57:01.760Z,9.53
2023-01-19T09:59:51.420Z,10.17
2023-01-19T10:02:44.124Z,10.10
2023-01-19T10:05:39.692Z,11.13
2023-01-19T10:08:35.148Z,10.80
2023-01-19T10:11:41.865Z,9.13
2023-01-19T10:14:37.965Z,10.07
2023-01-19T10:17:36.576Z,9.80
2023-01-19T10:20:29.664Z,12.13
2023-01-19T10:23:25.848Z,11.40
2023-01-19T10:26:17.783Z,9.63
2023-01-19T10:29:10.905Z,13.00
2023-01-19T10:32:07.943Z,11.97
2023-01-19T10:34:58.073Z,10.73
2023-01-19T10:37:46.623Z,11.60
2023-01-19T10:40:40.634Z,10.03
2023-01-19T10:43:41.503Z,12.60
2023-01-19T10:46:35.864Z,11.20
2023-01-19T10:49:26.949Z,12.37
2023-01-19T10:52:25.894Z,12.27
2023-01-19T10:55:25.707Z,13.77
2023-01-19T10:58:30.075Z,12.13
2023-01-19T11:01:22.764Z,16.60
2023-01-19T11:04:22.733Z,13.80
2023-01-19T11:07:16.419Z,11.90
2023-01-19T11:10:22.502Z,13.03
2023-01-19T11:13:15.650Z,12.40
2023-01-19T11:16:10.410Z,12.83
2023-01-19T11:19:02.022Z,13.37
2023-01-19T11:21:50.578Z,11.57
2023-01-19T11:24:40.219Z,13.90
2023-01-19T11:27:29.155Z,11.93
2023-01-19T11:30:20.684Z,14.63
2023-01-19T11:33:25.088Z,13.23
2023-01-19T11:36:17.183Z,13.90
2023-01-19T11:39:23.540Z,13.03
2023-01-19T11:42:13.829Z,12.20
2023-01-19T11:45:06.227Z,13.40
2023-01-19T11:47:54.690Z,15.30
2023-01-19T11:50:45.175Z,13.57
2023-01-19T11:53:35.047Z,11.80
2023-01-19T11:56:24.963Z,11.20
2023-01-19T11:59:14.020Z,12.57
2023-01-19T12:02:03.573Z,12.70
2023-01-19T12:04:52.947Z,12.50
2023-01-19T12:07:45.428Z,15.10
2023-01-19T12:10:37.166Z,12.83
2023-01-19T12:13:27.813Z,10.30
2023-01-19T12:16:21.555Z,12.27
2023-01-19T12:19:15.601Z,10.97
2023-01-19T12:22:05.411Z,12.90
2023-01-19T12:24:58.589Z,12.10
2023-01-19T12:27:48.151Z,12.33
2023-01-19T12:30:37.376Z,15.43
2023-01-19T12:33:36.955Z,13.83
2023-01-19T12:36:39.694Z,10.33
2023-01-19T12:39:28.149Z,13.00
2023-01-19T12:42:21.211Z,12.10
2023-01-19T12:45:14.752Z,11.47
2023-01-19T12:48:03.906Z,12.83
2023-01-19T12:50:52.478Z,14.37
2023-01-19T12:53:41.715Z,11.37
2023-01-19T12:56:31.532Z,11.63
2023-01-19T12:59:25.984Z,13.40
2023-01-19T13:02:41.835Z,12.87
2023-01-19T13:05:52.452Z,12.47
2023-01-19T13:09:01.824Z,12.37
2023-01-19T13:12:13.561Z,14.00
2023-01-19T13:15:34.614Z,16.63
2023-01-19T13:18:24.698Z,11.50
2023-01-19T13:21:13.862Z,13.27
2023-01-19T13:24:03.720Z,14.50
2023-01-19T13:26:57.423Z,13.27
2023-01-19T13:29:46.205Z,13.87
2023-01-19T13:32:36.057Z,17.07
2023-01-19T13:35:24.943Z,13.07
2023-01-19T13:38:14.640Z,11.20
2023-01-19T13:41:04.585Z,13.60
2023-01-19T13:43:58.130Z,13.67
2023-01-19T13:46:47.305Z,13.93
2023-01-19T13:49:39.867Z,14.17
2023-01-19T13:52:29.090Z,14.57
2023-01-19T13:55:19.105Z,11.23
2023-01-19T13:58:22.150Z,11.53
2023-01-19T14:01:22.024Z,12.63
2023-01-19T14:04:28.140Z,10.70
2023-01-19T14:07:26.075Z,11.73
2023-01-19T14:10:16.685Z,11.77
2023-01-19T14:13:07.150Z,10.70
2023-01-19T14:15:58.549Z,9.47
2023-01-19T14:18:47.218Z,13.47
2023-01-19T14:21:39.663Z,12.03
2023-01-19T14:24:32.158Z,12.93
2023-01-19T14:27:23.113Z,11.13
2023-01-19T14:30:21.911Z,13.50
2023-01-19T14:33:33.785Z,13.43
2023-01-19T14:36:30.541Z,10.13
2023-01-19T14:39:25.171Z,9.73
2023-01-19T14:42:23.859Z,9.73
2023-01-19T14:45:17.866Z,10.60
2023-01-19T14:48:13.269Z,12.33
2023-01-19T14:51:03.924Z,9.17
2023-01-19T14:53:55.632Z,10.90
2023-01-19T14:56:45.406Z,10.27
2023-01-19T14:59:35.269Z,10.77
2023-01-19T15:02:24.022Z,9.87
2023-01-19T15:05:12.643Z,13.00
2023-01-19T15:08:03.587Z,10.67
2023-01-19T15:10:52.451Z,11.60
2023-01-19T15:13:42.570Z,15.80
2023-01-19T15:16:34.666Z,14.03
2023-01-19T15:19:23.439Z,12.20
2023-01-19T15:22:14.688Z,10.67
2023-01-19T15:25:03.468Z,11.90
2023-01-19T15:27:52.046Z,11.27
2023-01-19T15:30:41.296Z,11.87
2023-01-19T15:33:31.436Z,15.10
2023-01-19T15:36:21.170Z,14.20
2023-01-19T15:39:10.607Z,11.80
2023-01-19T15:41:59.331Z,13.97
2023-01-19T15:44:48.237Z,16.17
2023-01-19T15:47:36.723Z,12.80
2023-01-19T15:50:27.189Z,17.53
2023-01-19T15:53:16.923Z,15.20
2023-01-19T15:56:05.894Z,12.97
2023-01-19T15:58:55.938Z,12.13
2023-01-19T16:01:44.717Z,12.70
2023-01-19T16:04:33.357Z,13.87
2023-01-19T16:07:23.506Z,12.00
2023-01-19T16:10:12.871Z,11.90
2023-01-19T16:13:01.648Z,12.27
2023-01-19T16:15:50.105Z,17.63
2023-01-19T16:18:39.086Z,13.90
2023-01-19T16:21:28.157Z,15.90
2023-01-19T16:24:18.239Z,14.13
2023-01-19T16:27:08.065Z,12.03
2023-01-19T16:29:57.106Z,12.40
2023-01-19T16:32:45.981Z,11.67
2023-01-19T16:35:34.461Z,13.47
2023-01-19T16:38:23.856Z,11.40
2023-01-19T16:41:13.861Z,11.43
2023-01-19T16:44:03.135Z,14.47
2023-01-19T16:46:52.265Z,12.43
2023-01-19T16:49:41.254Z,12.50
2023-01-19T16:52:30.108Z,12.07
2023-01-19T16:55:18.603Z,13.73
2023-01-19T16:58:08.428Z,18.70
2023-01-19T17:00:57.126Z,22.00
2023-01-19T17:03:46.184Z,17.70
2023-01-19T17:06:35.025Z,15.87
2023-01-19T17:09:23.794Z,14.23
2023-01-19T17:12:12.565Z,14.93
2023-01-19T17:15:04.091Z,13.30
2023-01-19T17:17:52.525Z,20.20
2023-01-19T17:20:41.344Z,14.63
2023-01-19T17:23:30.037Z,16.47
2023-01-19T17:26:19.564Z,20.27
2023-01-19T17:29:10.156Z,19.03
2023-01-19T17:32:00.230Z,19.53
2023-01-19T17:34:49.927Z,22.10
2023-01-19T17:37:38.610Z,20.77
2023-01-19T17:40:27.238Z,21.67
2023-01-19T17:43:16.045Z,25.40
2023-01-19T17:46:04.551Z,22.37
2023-01-19T17:48:56.385Z,27.43
2023-01-19T17:51:45.040Z,26.20
2023-01-19T17:54:33.908Z,28.03
2023-01-19T17:57:22.397Z,22.27
2023-01-19T18:00:12.760Z,30.23
2023-01-19T18:03:01.616Z,25.43
2023-01-19T18:05:55.431Z,25.30
2023-01-19T18:08:46.150Z,25.40
2023-01-19T18:11:34.827Z,25.43
2023-01-19T18:14:23.561Z,34.67
2023-01-19T18:17:12.037Z,26.43
2023-01-19T18:20:00.527Z,25.80
2023-01-19T18:22:50.478Z,25.47
2023-01-19T18:25:39.557Z,28.13
2023-01-19T18:28:28.333Z,26.50
2023-01-19T18:31:18.756Z,37.07
2023-01-19T18:34:07.251Z,31.27
2023-01-19T18:36:56.091Z,32.53
2023-01-19T18:39:46.333Z,28.30
2023-01-19T18:42:34.985Z,25.80
2023-01-19T18:45:23.475Z,29.00
2023-01-19T18:48:11.951Z,32.23
2023-01-19T18:51:03.310Z,24.90
2023-01-19T18:53:51.793Z,25.30
2023-01-19T18:56:41.625Z,27.47
2023-01-19T18:59:30.136Z,32.37
2023-01-19T19:02:18.698Z,29.67
2023-01-19T19:05:08.340Z,22.83
2023-01-19T19:07:56.842Z,31.50
2023-01-19T19:10:45.599Z,29.77
2023-01-19T19:13:35.608Z,33.67
2023-01-19T19:16:24.268Z,36.97
2023-01-19T19:19:15.350Z,29.03
2023-01-19T19:22:03.913Z,30.03
2023-01-19T19:24:52.551Z,28.60
2023-01-19T19:27:45.155Z,25.80
2023-01-19T19:30:37.704Z,25.73
2023-01-19T19:33:26.918Z,28.10
2023-01-19T19:36:15.502Z,29.97
2023-01-19T19:39:04.007Z,23.33
2023-01-19T19:41:52.648Z,26.07
2023-01-19T19:44:41.213Z,24.27
2023-01-19T19:47:31.655Z,25.70
2023-01-19T19:50:20.324Z,26.53
2023-01-19T19:53:08.992Z,22.90
2023-01-19T19:55:58.468Z,29.70
2023-01-19T19:58:46.921Z,28.27
2023-01-19T20:01:35.636Z,23.47
2023-01-19T20:04:25.732Z,25.70
2023-01-19T20:07:15.452Z,30.87
2023-01-19T20:10:06.282Z,24.77
2023-01-19T20:12:54.782Z,27.80
2023-01-19T20:15:43.306Z,27.87
2023-01-19T20:18:32.549Z,28.60
2023-01-19T20:21:24.720Z,27.27
2023-01-19T20:24:15.914Z,29.90
2023-01-19T20:27:04.562Z,26.10
2023-01-19T20:29:57.946Z,27.20
2023-01-19T20:32:46.665Z,24.90
2023-01-19T20:35:35.291Z,23.60
2023-01-19T20:38:25.168Z,24.40
2023-01-19T20:41:13.998Z,26.50
2023-01-19T20:44:02.676Z,24.73
2023-01-19T20:46:51.526Z,27.13
2023-01-19T20:49:40.180Z,24.80
2023-01-19T20:52:28.768Z,22.00
2023-01-19T20:55:18.724Z,25.67
2023-01-19T20:58:07.227Z,27.13
2023-01-19T21:00:55.823Z,25.80
2023-01-19T21:03:44.467Z,23.50
2023-01-19T21:06:33.058Z,25.27
2023-01-19T21:09:22.852Z,22.63
2023-01-19T21:12:13.347Z,28.77
2023-01-19T21:15:02.083Z,26.87
2023-01-19T21:17:50.579Z,26.43
2023-01-19T21:20:39.182Z,25.33
2023-01-19T21:23:28.257Z,25.10
2023-01-19T21:26:17.344Z,25.07
2023-01-19T21:29:07.297Z,22.23
2023-01-19T21:31:55.901Z,26.77
2023-01-19T21:34:44.759Z,27.50
2023-01-19T21:37:33.303Z,28.60
2023-01-19T21:40:21.740Z,28.47
2023-01-19T21:43:11.779Z,28.70
2023-01-19T21:46:11.214Z,32.30
2023-01-19T21:49:00.884Z,23.63
2023-01-19T21:51:50.456Z,31.10
2023-01-19T21:54:39.027Z,31.60
2023-01-19T21:57:27.595Z,27.03
2023-01-19T22:00:16.694Z,26.73
2023-01-19T22:03:06.541Z,30.60
2023-01-19T22:05:55.797Z,32.70
2023-01-19T22:08:46.508Z,30.13
2023-01-19T22:11:34.999Z,29.90
2023-01-19T22:14:23.535Z,34.37
2023-01-19T22:17:11.985Z,29.50
2023-01-19T22:20:01.837Z,38.40
2023-01-19T22:22:50.364Z,42.73
2023-01-19T22:25:38.865Z,34.00
2023-01-19T22:28:27.288Z,36.93
2023-01-19T22:31:17.860Z,32.50
2023-01-19T22:34:10.029Z,29.77
2023-01-19T22:37:00.010Z,30.47
2023-01-19T22:39:48.467Z,28.20
2023-01-19T22:42:36.985Z,24.97
2023-01-19T22:45:25.486Z,29.53
2023-01-19T22:48:14.043Z,29.60
2023-01-19T22:51:02.582Z,27.47
2023-01-19T22:53:53.000Z,26.93
2023-01-19T22:56:42.099Z,29.90
2023-01-19T22:59:30.728Z,25.67
2023-01-19T23:02:20.777Z,26.93
2023-01-19T23:05:09.863Z,30.87
2023-01-19T23:07:58.332Z,32.10
2023-01-19T23:10:48.142Z,26.43
2023-01-19T23:13:36.748Z,25.33
2023-01-19T23:16:25.368Z,25.63
2023-01-19T23:19:14.731Z,32.27
2023-01-19T23:22:03.177Z,28.90
2023-01-19T23:24:51.612Z,28.10
2023-01-19T23:27:41.416Z,25.37
2023-01-19T23:30:29.926Z,28.30
2023-01-19T23:33:18.412Z,24.23
2023-01-19T23:36:07.610Z,24.93
2023-01-19T23:38:57.423Z,29.10
2023-01-19T23:41:45.986Z,28.47
2023-01-19T23:44:36.064Z,27.80
2023-01-19T23:47:24.518Z,25.53
2023-01-19T23:50:13.675Z,24.17
2023-01-19T23:53:02.174Z,24.23
2023-01-19T23:55:50.671Z,26.97
2023-01-19T23:58:39.763Z,26.87
